createdAt,value
2023-04-26T00:01:36.815Z,58.18
2023-04-26T00:04:40.303Z,58.01
2023-04-26T00:07:43.759Z,58.03
2023-04-26T00:10:46.912Z,57.90
2023-04-26T00:13:49.459Z,58.11
2023-04-26T00:16:52.267Z,57.65
2023-04-26T00:19:57.578Z,57.87
2023-04-26T00:23:00.686Z,57.94
2023-04-26T00:26:03.833Z,57.95
2023-04-26T00:29:07.278Z,58.03
2023-04-26T00:32:10.051Z,58.07
2023-04-26T00:35:12.732Z,58.48
2023-04-26T00:38:15.468Z,58.80
2023-04-26T00:41:18.113Z,58.66
2023-04-26T00:44:21.034Z,58.34
2023-04-26T00:47:26.092Z,58.53
2023-04-26T00:50:31.222Z,58.62
2023-04-26T00:53:36.726Z,58.96
2023-04-26T00:56:40.707Z,59.59
2023-04-26T00:59:43.322Z,60.00
2023-04-26T01:02:46.332Z,60.45
2023-04-26T01:05:49.242Z,60.93
2023-04-26T01:08:53.849Z,60.96
2023-04-26T01:11:58.771Z,61.21
2023-04-26T01:15:01.565Z,61.59
2023-04-26T01:18:05.116Z,61.75
2023-04-26T01:21:11.451Z,62.10
2023-04-26T01:24:14.451Z,61.55
2023-04-26T01:27:17.775Z,61.69
2023-04-26T01:30:21.087Z,61.84
2023-04-26T01:33:23.998Z,61.82
2023-04-26T01:36:27.786Z,61.46
2023-04-26T01:39:31.100Z,61.63
2023-04-26T01:42:34.030Z,61.47
2023-04-26T01:45:36.815Z,61.56
2023-04-26T01:48:59.108Z,61.24
2023-04-26T01:52:02.287Z,61.22
2023-04-26T01:55:07.357Z,61.80
2023-04-26T01:58:09.946Z,61.64
2023-04-26T02:01:12.666Z,61.83
2023-04-26T02:04:15.283Z,61.53
2023-04-26T02:07:20.155Z,61.83
2023-04-26T02:10:22.892Z,61.55
2023-04-26T02:13:27.234Z,61.69
2023-04-26T02:16:30.666Z,61.58
2023-04-26T02:19:33.455Z,61.57
2023-04-26T02:22:36.516Z,61.74
2023-04-26T02:25:39.568Z,61.54
2023-04-26T02:28:43.107Z,61.43
2023-04-26T02:31:45.776Z,61.32
2023-04-26T02:34:48.485Z,61.36
2023-04-26T02:37:52.440Z,60.89
2023-04-26T02:41:00.028Z,60.82
2023-04-26T02:44:02.707Z,60.95
2023-04-26T02:47:05.500Z,60.98
2023-04-26T02:50:09.534Z,61.02
2023-04-26T02:53:14.125Z,60.76
2023-04-26T02:56:17.074Z,60.99
2023-04-26T02:59:20.075Z,61.25
2023-04-26T03:02:24.530Z,61.13
2023-04-26T03:05:29.229Z,61.17
2023-04-26T03:08:31.801Z,60.79
2023-04-26T03:11:34.618Z,60.80
2023-04-26T03:14:38.276Z,60.63
2023-04-26T03:17:43.317Z,60.94
2023-04-26T03:20:46.992Z,60.50
2023-04-26T03:23:49.981Z,60.13
2023-04-26T03:26:52.953Z,59.97
2023-04-26T03:29:55.895Z,60.67
2023-04-26T03:32:58.742Z,60.24
2023-04-26T03:36:01.709Z,60.13
2023-04-26T03:39:06.168Z,60.55
2023-04-26T03:42:09.957Z,60.66
2023-04-26T03:45:12.911Z,61.04
2023-04-26T03:48:16.930Z,61.58
2023-04-26T03:51:20.009Z,61.67
2023-04-26T03:54:22.834Z,60.92
2023-04-26T03:57:25.786Z,60.68
2023-04-26T04:00:28.472Z,60.85
2023-04-26T04:03:31.398Z,60.59
2023-04-26T04:06:34.269Z,60.11
2023-04-26T04:09:37.024Z,59.86
2023-04-26T04:12:39.629Z,59.48
2023-04-26T04:15:42.447Z,59.21
2023-04-26T04:18:45.238Z,59.23
2023-04-26T04:21:54.397Z,58.88
2023-04-26T04:24:57.579Z,58.38
2023-04-26T04:28:02.134Z,57.33
2023-04-26T04:31:05.371Z,57.49
2023-04-26T04:34:08.871Z,57.05
2023-04-26T04:37:12.391Z,56.97
2023-04-26T04:40:16.199Z,56.70
2023-04-26T04:43:21.643Z,56.29
2023-04-26T04:46:25.496Z,55.95
2023-04-26T04:49:29.053Z,56.36
2023-04-26T04:52:33.427Z,56.36
2023-04-26T04:55:36.733Z,56.33
2023-04-26T04:58:39.638Z,56.45
2023-04-26T05:01:42.430Z,56.82
2023-04-26T05:04:49.363Z,56.92
2023-04-26T05:07:52.291Z,56.83
2023-04-26T05:10:55.758Z,56.31
2023-04-26T05:13:59.405Z,56.13
2023-04-26T05:17:02.032Z,56.71
2023-04-26T05:20:07.459Z,56.72
2023-04-26T05:23:10.919Z,56.32
2023-04-26T05:26:16.514Z,56.35
2023-04-26T05:29:32.258Z,56.00
2023-04-26T05:32:41.643Z,55.63
2023-04-26T05:35:59.882Z,55.44
2023-04-26T05:39:02.448Z,54.96
2023-04-26T05:42:05.376Z,54.53
2023-04-26T05:45:08.851Z,54.27
2023-04-26T05:48:12.124Z,54.50
2023-04-26T05:51:14.839Z,54.15
2023-04-26T05:54:19.321Z,53.36
2023-04-26T05:57:22.415Z,53.20
2023-04-26T06:00:26.063Z,52.55
2023-04-26T06:03:29.229Z,52.16
2023-04-26T06:06:32.178Z,52.42
2023-04-26T06:09:35.760Z,51.33
2023-04-26T06:12:39.414Z,51.03
2023-04-26T06:15:42.669Z,50.79
2023-04-26T06:18:46.244Z,50.07
2023-04-26T06:21:49.221Z,49.62
2023-04-26T06:24:52.182Z,49.03
2023-04-26T06:27:55.050Z,48.76
2023-04-26T06:30:58.385Z,49.87
2023-04-26T06:34:01.816Z,49.93
2023-04-26T06:37:07.737Z,50.43
2023-04-26T06:40:15.929Z,49.62
2023-04-26T06:43:19.123Z,48.83
2023-04-26T06:46:55.367Z,48.87
2023-04-26T06:49:58.053Z,49.14
2023-04-26T06:53:00.698Z,47.21
2023-04-26T06:56:03.690Z,47.30
2023-04-26T06:59:07.925Z,46.73
2023-04-26T07:02:10.886Z,46.18
2023-04-26T07:05:15.424Z,46.10
2023-04-26T07:08:18.404Z,45.15
2023-04-26T07:11:22.329Z,45.64
2023-04-26T07:14:26.620Z,44.33
2023-04-26T07:17:29.803Z,42.89
2023-04-26T07:20:32.338Z,42.86
2023-04-26T07:23:35.182Z,41.02
2023-04-26T07:26:37.961Z,40.82
2023-04-26T07:29:40.932Z,41.02
2023-04-26T07:32:43.690Z,40.56
2023-04-26T07:35:55.298Z,39.49
2023-04-26T07:38:57.980Z,39.54
2023-04-26T07:42:00.395Z,37.77
2023-04-26T07:45:03.801Z,37.23
2023-04-26T07:48:06.664Z,37.13
2023-04-26T07:51:11.229Z,36.91
2023-04-26T07:54:13.743Z,36.57
2023-04-26T07:57:17.103Z,35.79
2023-04-26T08:00:20.045Z,35.00
2023-04-26T08:03:22.902Z,35.22
2023-04-26T08:06:26.113Z,34.89
2023-04-26T08:09:29.397Z,34.53
2023-04-26T08:12:33.738Z,34.01
2023-04-26T08:15:36.282Z,34.60
2023-04-26T08:18:39.124Z,34.57
2023-04-26T08:21:42.164Z,34.48
2023-04-26T08:24:51.730Z,34.68
2023-04-26T08:27:54.473Z,34.49
2023-04-26T08:30:58.326Z,34.06
2023-04-26T08:34:01.330Z,33.21
2023-04-26T08:37:07.881Z,32.25
2023-04-26T08:40:11.246Z,32.64
2023-04-26T08:43:17.170Z,32.17
2023-04-26T08:46:21.490Z,30.77
2023-04-26T08:49:53.171Z,30.06
2023-04-26T08:53:00.544Z,30.14
2023-04-26T08:56:05.031Z,29.82
2023-04-26T08:59:10.138Z,29.86
2023-04-26T09:02:31.747Z,29.56
2023-04-26T09:05:34.845Z,29.47
2023-04-26T09:08:41.773Z,29.45
2023-04-26T09:11:58.305Z,28.68
2023-04-26T09:15:04.692Z,27.64
2023-04-26T09:18:23.191Z,27.24
2023-04-26T09:21:26.255Z,26.92
2023-04-26T09:24:29.571Z,27.44
2023-04-26T09:27:40.624Z,27.13
2023-04-26T09:30:43.457Z,27.05
2023-04-26T09:34:01.213Z,26.51
2023-04-26T09:37:04.020Z,26.30
2023-04-26T09:40:19.561Z,25.78
2023-04-26T09:43:23.002Z,25.57
2023-04-26T09:46:25.729Z,24.65
2023-04-26T09:49:48.854Z,24.68
2023-04-26T09:52:51.515Z,23.66
2023-04-26T09:55:55.580Z,23.37
2023-04-26T09:59:01.342Z,22.19
2023-04-26T10:02:04.011Z,21.42
2023-04-26T10:05:07.669Z,17.52
2023-04-26T10:08:10.530Z,15.27
2023-04-26T10:11:14.030Z,14.54
2023-04-26T10:14:16.974Z,13.42
2023-04-26T10:17:20.913Z,11.97
2023-04-26T10:20:27.168Z,12.47
2023-04-26T10:23:30.313Z,14.46
2023-04-26T10:26:53.637Z,17.09
2023-04-26T10:29:56.572Z,16.86
2023-04-26T10:32:59.195Z,13.61
2023-04-26T10:36:01.928Z,12.90
2023-04-26T10:39:25.177Z,11.40
2023-04-26T10:42:30.426Z,14.93
2023-04-26T10:45:33.182Z,11.15
2023-04-26T10:48:37.012Z,13.39
2023-04-26T10:51:39.809Z,14.69
2023-04-26T10:54:49.416Z,16.59
2023-04-26T10:57:53.887Z,18.75
2023-04-26T11:01:16.618Z,19.94
2023-04-26T11:04:19.524Z,19.75
2023-04-26T11:07:38.645Z,21.69
2023-04-26T11:10:43.346Z,21.03
2023-04-26T11:13:47.326Z,16.75
2023-04-26T11:16:49.893Z,17.05
2023-04-26T11:19:52.506Z,17.94
2023-04-26T11:22:55.206Z,16.83
2023-04-26T11:26:03.436Z,11.86
2023-04-26T11:29:09.638Z,12.85
2023-04-26T11:32:14.536Z,16.61
2023-04-26T11:35:17.282Z,15.20
2023-04-26T11:38:28.489Z,17.46
2023-04-26T11:41:31.235Z,19.46
2023-04-26T11:44:35.614Z,20.31
2023-04-26T11:47:38.773Z,21.56
2023-04-26T11:50:42.690Z,20.89
2023-04-26T11:53:45.688Z,15.27
2023-04-26T11:56:48.255Z,13.00
2023-04-26T11:59:53.837Z,10.52
2023-04-26T12:02:58.323Z,10.00
2023-04-26T12:06:01.631Z,11.86
2023-04-26T12:09:24.457Z,14.84
2023-04-26T12:12:28.075Z,17.42
2023-04-26T12:15:32.969Z,19.66
2023-04-26T12:18:35.972Z,19.05
2023-04-26T12:21:43.105Z,17.13
2023-04-26T12:24:48.119Z,16.83
2023-04-26T12:27:50.672Z,19.12
2023-04-26T12:30:53.467Z,21.22
2023-04-26T12:33:56.233Z,21.70
2023-04-26T12:36:58.906Z,23.18
2023-04-26T12:40:01.748Z,23.62
2023-04-26T12:43:04.377Z,23.28
2023-04-26T12:46:07.011Z,21.73
2023-04-26T12:49:09.920Z,15.04
2023-04-26T12:52:12.654Z,14.37
2023-04-26T12:55:16.774Z,15.78
2023-04-26T12:58:19.416Z,17.99
2023-04-26T13:01:22.120Z,19.96
2023-04-26T13:04:24.893Z,20.61
2023-04-26T13:07:27.962Z,19.81
2023-04-26T13:10:30.764Z,13.99
2023-04-26T13:13:42.980Z,11.96
2023-04-26T13:16:46.591Z,11.95
2023-04-26T13:19:49.354Z,15.04
2023-04-26T13:22:52.050Z,15.73
2023-04-26T13:25:54.742Z,14.69
2023-04-26T13:28:57.596Z,17.97
2023-04-26T13:32:00.685Z,20.09
2023-04-26T13:35:04.347Z,19.88
2023-04-26T13:38:07.066Z,18.17
2023-04-26T13:41:11.243Z,16.46
2023-04-26T13:44:15.814Z,12.99
2023-04-26T13:47:18.480Z,12.33
2023-04-26T13:50:22.027Z,16.79
2023-04-26T13:53:25.067Z,19.81
2023-04-26T13:56:27.852Z,21.84
2023-04-26T13:59:30.550Z,23.34
2023-04-26T14:02:33.910Z,24.49
2023-04-26T14:05:37.082Z,25.04
2023-04-26T14:08:39.680Z,24.46
2023-04-26T14:11:42.274Z,18.83
2023-04-26T14:14:46.455Z,16.69
2023-04-26T14:17:49.107Z,17.69
2023-04-26T14:20:52.274Z,12.59
2023-04-26T14:23:55.179Z,16.09
2023-04-26T14:26:58.508Z,19.41
2023-04-26T14:30:01.432Z,21.57
2023-04-26T14:33:04.516Z,22.92
2023-04-26T14:36:07.400Z,23.69
2023-04-26T14:39:10.181Z,23.95
2023-04-26T14:42:13.137Z,23.77
2023-04-26T14:45:15.849Z,23.87
2023-04-26T14:48:19.314Z,23.79
2023-04-26T14:51:22.459Z,24.36
2023-04-26T14:54:25.726Z,25.72
2023-04-26T14:57:28.417Z,26.72
2023-04-26T15:00:31.383Z,26.93
2023-04-26T15:03:34.090Z,27.53
2023-04-26T15:06:36.649Z,26.14
2023-04-26T15:09:39.381Z,25.16
2023-04-26T15:12:42.022Z,24.00
2023-04-26T15:15:44.616Z,24.01
2023-04-26T15:18:47.118Z,24.41
2023-04-26T15:21:49.780Z,24.49
2023-04-26T15:24:52.545Z,25.21
2023-04-26T15:27:55.356Z,25.97
2023-04-26T15:31:03.368Z,26.59
2023-04-26T15:34:05.901Z,27.51
2023-04-26T15:37:08.734Z,27.98
2023-04-26T15:40:12.206Z,28.08
2023-04-26T15:43:16.745Z,27.35
2023-04-26T15:46:19.460Z,27.78
2023-04-26T15:49:24.230Z,27.32
2023-04-26T15:52:26.814Z,26.50
2023-04-26T15:55:32.340Z,26.82
2023-04-26T15:58:39.327Z,26.94
2023-04-26T16:01:43.774Z,27.10
2023-04-26T16:04:46.576Z,27.80
2023-04-26T16:07:49.306Z,27.33
2023-04-26T16:10:52.103Z,26.67
2023-04-26T16:13:54.914Z,25.45
2023-04-26T16:16:59.935Z,24.98
2023-04-26T16:20:04.954Z,24.99
2023-04-26T16:23:10.357Z,25.39
2023-04-26T16:26:13.042Z,25.61
2023-04-26T16:29:15.595Z,25.54
2023-04-26T16:32:18.289Z,26.50
2023-04-26T16:35:20.952Z,27.05
2023-04-26T16:38:23.589Z,27.06
2023-04-26T16:41:27.569Z,27.65
2023-04-26T16:44:31.071Z,27.33
2023-04-26T16:47:34.358Z,28.08
2023-04-26T16:50:37.862Z,28.50
2023-04-26T16:53:40.509Z,28.40
2023-04-26T16:56:44.098Z,28.17
2023-04-26T16:59:47.249Z,28.92
2023-04-26T17:02:50.595Z,29.11
2023-04-26T17:05:53.372Z,29.92
2023-04-26T17:08:56.488Z,29.61
2023-04-26T17:11:59.185Z,29.06
2023-04-26T17:15:04.329Z,29.94
2023-04-26T17:18:08.390Z,30.35
2023-04-26T17:21:11.358Z,30.49
2023-04-26T17:24:14.397Z,30.56
2023-04-26T17:27:18.039Z,30.19
2023-04-26T17:30:21.758Z,31.07
2023-04-26T17:33:26.070Z,30.41
2023-04-26T17:36:29.006Z,31.29
2023-04-26T17:39:31.832Z,31.26
2023-04-26T17:42:34.767Z,31.46
2023-04-26T17:45:38.933Z,31.13
2023-04-26T17:48:42.010Z,31.54
2023-04-26T17:51:44.780Z,31.59
2023-04-26T17:54:48.000Z,31.59
2023-04-26T17:57:50.872Z,31.48
2023-04-26T18:00:53.954Z,31.62
2023-04-26T18:03:57.138Z,31.83
2023-04-26T18:07:00.153Z,31.98
2023-04-26T18:10:04.278Z,31.83
2023-04-26T18:13:07.433Z,31.61
2023-04-26T18:16:13.030Z,31.71
2023-04-26T18:19:16.351Z,31.96
2023-04-26T18:22:19.117Z,32.16
2023-04-26T18:25:22.679Z,32.22
2023-04-26T18:28:25.782Z,32.02
2023-04-26T18:31:29.692Z,32.19
2023-04-26T18:34:34.300Z,32.92
2023-04-26T18:37:38.093Z,32.49
2023-04-26T18:40:45.506Z,32.88
2023-04-26T18:43:48.758Z,32.97
2023-04-26T18:46:55.987Z,33.36
2023-04-26T18:49:59.628Z,33.50
2023-04-26T18:53:06.409Z,33.16
2023-04-26T18:56:09.839Z,33.59
2023-04-26T18:59:13.518Z,33.47
2023-04-26T19:02:17.101Z,33.54
2023-04-26T19:05:20.897Z,33.93
2023-04-26T19:08:26.191Z,34.22
2023-04-26T19:11:29.621Z,34.11
2023-04-26T19:14:33.646Z,34.43
2023-04-26T19:17:40.736Z,34.27
2023-04-26T19:20:45.361Z,33.54
2023-04-26T19:23:48.696Z,33.62
2023-04-26T19:26:52.123Z,33.83
2023-04-26T19:29:55.421Z,33.99
2023-04-26T19:32:58.697Z,34.53
2023-04-26T19:36:02.024Z,33.80
2023-04-26T19:39:05.414Z,34.13
2023-04-26T19:42:09.229Z,33.87
2023-04-26T19:45:13.610Z,34.11
2023-04-26T19:48:16.903Z,34.41
2023-04-26T19:51:20.184Z,34.72
2023-04-26T19:54:23.526Z,34.62
2023-04-26T19:57:27.050Z,34.31
2023-04-26T20:00:30.925Z,35.63
2023-04-26T20:03:34.519Z,34.76
2023-04-26T20:06:38.045Z,35.04
2023-04-26T20:09:41.765Z,34.51
2023-04-26T20:12:45.583Z,34.77
2023-04-26T20:15:49.092Z,35.11
2023-04-26T20:18:52.821Z,35.11
2023-04-26T20:22:11.312Z,35.09
2023-04-26T20:25:15.886Z,35.48
2023-04-26T20:28:27.393Z,35.06
2023-04-26T20:31:32.902Z,35.16
2023-04-26T20:34:36.282Z,35.36
2023-04-26T20:37:41.031Z,35.59
2023-04-26T20:40:43.804Z,35.85
2023-04-26T20:43:46.567Z,36.55
2023-04-26T20:46:49.507Z,36.06
2023-04-26T20:49:52.838Z,36.20
2023-04-26T20:52:56.613Z,36.98
2023-04-26T20:55:59.371Z,36.83
2023-04-26T20:59:02.597Z,36.98
2023-04-26T21:02:07.541Z,36.55
2023-04-26T21:05:14.432Z,37.19
2023-04-26T21:08:17.065Z,37.34
2023-04-26T21:11:19.873Z,37.21
2023-04-26T21:14:22.523Z,37.71
2023-04-26T21:17:25.186Z,38.33
2023-04-26T21:20:27.754Z,38.35
2023-04-26T21:23:30.326Z,38.38
2023-04-26T21:26:32.979Z,38.99
2023-04-26T21:29:35.683Z,39.27
2023-04-26T21:32:40.330Z,39.48
2023-04-26T21:35:42.866Z,39.80
2023-04-26T21:38:45.839Z,39.54
2023-04-26T21:41:48.519Z,39.71
2023-04-26T21:44:51.196Z,39.22
2023-04-26T21:47:53.793Z,39.96
2023-04-26T21:50:57.117Z,40.05
2023-04-26T21:53:59.785Z,40.27
2023-04-26T21:57:06.651Z,40.19
2023-04-26T22:00:11.904Z,40.10
2023-04-26T22:03:18.367Z,39.87
2023-04-26T22:06:21.575Z,40.47
2023-04-26T22:09:24.444Z,40.27
2023-04-26T22:12:27.671Z,39.83
2023-04-26T22:15:30.879Z,39.90
2023-04-26T22:18:33.721Z,40.11
2023-04-26T22:21:36.570Z,40.96
2023-04-26T22:24:39.131Z,40.99
2023-04-26T22:27:41.632Z,40.21
2023-04-26T22:30:44.227Z,40.69
2023-04-26T22:33:47.857Z,40.31
2023-04-26T22:36:50.521Z,39.72
2023-04-26T22:39:53.645Z,39.90
2023-04-26T22:42:56.470Z,39.74
2023-04-26T22:45:59.457Z,39.65
2023-04-26T22:49:02.108Z,39.35
2023-04-26T22:52:11.636Z,39.54
2023-04-26T22:55:19.875Z,39.93
2023-04-26T22:58:22.543Z,40.47
2023-04-26T23:01:25.288Z,40.97
2023-04-26T23:04:27.918Z,40.36
2023-04-26T23:07:30.762Z,40.80
2023-04-26T23:10:33.592Z,41.08
2023-04-26T23:13:38.025Z,40.65
2023-04-26T23:16:40.688Z,41.04
2023-04-26T23:19:43.317Z,41.22
2023-04-26T23:22:46.070Z,41.08
2023-04-26T23:25:48.859Z,41.25
2023-04-26T23:28:51.389Z,41.95
2023-04-26T23:31:54.191Z,41.57
2023-04-26T23:34:56.814Z,41.03
2023-04-26T23:37:59.377Z,40.91
2023-04-26T23:41:02.000Z,41.11
2023-04-26T23:44:04.728Z,41.43
2023-04-26T23:47:07.575Z,42.07
2023-04-26T23:50:10.701Z,42.24
2023-04-26T23:53:13.330Z,42.58
2023-04-26T23:56:16.230Z,43.10
2023-04-26T23:59:18.809Z,42.97
